sensor_id;sensor_type;location;lat;lon;timestamp;P1;durP1;ratioP1;P2;durP2;ratioP2
20036;SDS011;10179;42.640;23.312;2023-02-16T00:01:46;49.90;;;23.83;;
20036;SDS011;10179;42.640;23.312;2023-02-16T00:04:19;48.55;;;21.88;;
20036;SDS011;10179;42.640;23.312;2023-02-16T00:06:47;47.72;;;20.83;;
20036;SDS011;10179;42.640;23.312;2023-02-16T00:09:13;58.67;;;25.92;;
20036;SDS011;10179;42.640;23.312;2023-02-16T00:11:39;51.85;;;24.25;;
20036;SDS011;10179;42.640;23.312;2023-02-16T00:14:23;51.17;;;23.20;;
20036;SDS011;10179;42.640;23.312;2023-02-16T00:16:50;44.78;;;21.88;;
20036;SDS011;10179;42.640;23.312;2023-02-16T00:19:26;46.83;;;21.17;;
20036;SDS011;10179;42.640;23.312;2023-02-16T00:21:53;45.50;;;20.23;;
20036;SDS011;10179;42.640;23.312;2023-02-16T00:24:20;38.88;;;18.92;;
20036;SDS011;10179;42.640;23.312;2023-02-16T00:26:46;47.58;;;20.60;;
20036;SDS011;10179;42.640;23.312;2023-02-16T00:29:34;44.67;;;20.08;;
20036;SDS011;10179;42.640;23.312;2023-02-16T00:32:00;39.78;;;20.88;;
20036;SDS011;10179;42.640;23.312;2023-02-16T00:37:06;43.50;;;18.15;;
20036;SDS011;10179;42.640;23.312;2023-02-16T00:39:33;36.30;;;16.00;;
20036;SDS011;10179;42.640;23.312;2023-02-16T00:42:00;28.88;;;14.80;;
20036;SDS011;10179;42.640;23.312;2023-02-16T00:44:39;27.75;;;14.93;;
20036;SDS011;10179;42.640;23.312;2023-02-16T00:49:42;28.67;;;14.10;;
20036;SDS011;10179;42.640;23.312;2023-02-16T00:54:49;30.52;;;14.75;;
20036;SDS011;10179;42.640;23.312;2023-02-16T00:57:15;34.50;;;17.48;;
20036;SDS011;10179;42.640;23.312;2023-02-16T00:59:43;31.13;;;15.18;;
20036;SDS011;10179;42.640;23.312;2023-02-16T01:02:09;29.05;;;15.80;;
20036;SDS011;10179;42.640;23.312;2023-02-16T01:04:35;31.33;;;16.40;;
20036;SDS011;10179;42.640;23.312;2023-02-16T01:07:01;37.65;;;15.85;;
20036;SDS011;10179;42.640;23.312;2023-02-16T01:09:45;34.45;;;16.20;;
20036;SDS011;10179;42.640;23.312;2023-02-16T01:12:29;31.63;;;16.00;;
20036;SDS011;10179;42.640;23.312;2023-02-16T01:14:54;36.60;;;15.85;;
20036;SDS011;10179;42.640;23.312;2023-02-16T01:17:20;30.63;;;15.32;;
20036;SDS011;10179;42.640;23.312;2023-02-16T01:19:47;34.70;;;17.65;;
20036;SDS011;10179;42.640;23.312;2023-02-16T01:22:12;32.83;;;15.77;;
20036;SDS011;10179;42.640;23.312;2023-02-16T01:24:38;34.88;;;16.45;;
20036;SDS011;10179;42.640;23.312;2023-02-16T01:27:03;29.58;;;15.55;;
20036;SDS011;10179;42.640;23.312;2023-02-16T01:29:28;28.15;;;14.38;;
20036;SDS011;10179;42.640;23.312;2023-02-16T01:31:54;26.45;;;14.63;;
20036;SDS011;10179;42.640;23.312;2023-02-16T01:34:19;32.08;;;15.50;;
20036;SDS011;10179;42.640;23.312;2023-02-16T01:36:45;42.40;;;18.42;;
20036;SDS011;10179;42.640;23.312;2023-02-16T01:39:12;31.58;;;15.18;;
20036;SDS011;10179;42.640;23.312;2023-02-16T01:41:45;27.95;;;14.30;;
20036;SDS011;10179;42.640;23.312;2023-02-16T01:44:22;33.45;;;15.55;;
20036;SDS011;10179;42.640;23.312;2023-02-16T01:49:27;26.95;;;14.88;;
20036;SDS011;10179;42.640;23.312;2023-02-16T01:51:55;28.20;;;14.68;;
20036;SDS011;10179;42.640;23.312;2023-02-16T01:57:14;27.15;;;12.73;;
20036;SDS011;10179;42.640;23.312;2023-02-16T02:00:06;30.42;;;13.85;;
20036;SDS011;10179;42.640;23.312;2023-02-16T02:02:51;36.30;;;14.35;;
20036;SDS011;10179;42.640;23.312;2023-02-16T02:05:40;28.40;;;13.98;;
20036;SDS011;10179;42.640;23.312;2023-02-16T02:08:09;31.40;;;14.88;;
20036;SDS011;10179;42.640;23.312;2023-02-16T02:15:53;32.95;;;14.13;;
20036;SDS011;10179;42.640;23.312;2023-02-16T02:18:22;29.38;;;12.88;;
20036;SDS011;10179;42.640;23.312;2023-02-16T02:21:04;26.65;;;12.85;;
20036;SDS011;10179;42.640;23.312;2023-02-16T02:27:29;28.58;;;12.43;;
20036;SDS011;10179;42.640;23.312;2023-02-16T02:38:13;44.00;;;20.35;;
20036;SDS011;10179;42.640;23.312;2023-02-16T02:43:24;46.88;;;18.42;;
20036;SDS011;10179;42.640;23.312;2023-02-16T02:45:56;40.38;;;18.17;;
20036;SDS011;10179;42.640;23.312;2023-02-16T02:48:32;40.92;;;18.90;;
20036;SDS011;10179;42.640;23.312;2023-02-16T02:53:53;33.70;;;15.68;;
20036;SDS011;10179;42.640;23.312;2023-02-16T02:56:47;36.35;;;16.13;;
20036;SDS011;10179;42.640;23.312;2023-02-16T02:59:39;37.13;;;16.50;;
20036;SDS011;10179;42.640;23.312;2023-02-16T03:02:27;34.95;;;16.30;;
20036;SDS011;10179;42.640;23.312;2023-02-16T03:04:54;32.83;;;15.05;;
20036;SDS011;10179;42.640;23.312;2023-02-16T03:07:22;31.25;;;16.08;;
20036;SDS011;10179;42.640;23.312;2023-02-16T03:10:11;31.77;;;15.32;;
20036;SDS011;10179;42.640;23.312;2023-02-16T03:12:56;31.83;;;15.02;;
20036;SDS011;10179;42.640;23.312;2023-02-16T03:15:24;33.95;;;15.13;;
20036;SDS011;10179;42.640;23.312;2023-02-16T03:17:52;35.00;;;16.05;;
20036;SDS011;10179;42.640;23.312;2023-02-16T03:20:39;34.72;;;15.90;;
20036;SDS011;10179;42.640;23.312;2023-02-16T03:23:25;31.35;;;15.85;;
20036;SDS011;10179;42.640;23.312;2023-02-16T03:26:10;28.17;;;13.13;;
20036;SDS011;10179;42.640;23.312;2023-02-16T03:28:55;31.00;;;14.52;;
20036;SDS011;10179;42.640;23.312;2023-02-16T03:31:40;31.30;;;14.40;;
20036;SDS011;10179;42.640;23.312;2023-02-16T03:34:08;32.67;;;13.50;;
20036;SDS011;10179;42.640;23.312;2023-02-16T03:36:34;34.10;;;14.40;;
20036;SDS011;10179;42.640;23.312;2023-02-16T03:39:02;30.05;;;14.13;;
20036;SDS011;10179;42.640;23.312;2023-02-16T03:41:32;31.15;;;15.07;;
20036;SDS011;10179;42.640;23.312;2023-02-16T03:44:02;33.67;;;14.27;;
20036;SDS011;10179;42.640;23.312;2023-02-16T03:46:28;31.45;;;14.43;;
20036;SDS011;10179;42.640;23.312;2023-02-16T03:48:54;32.53;;;15.13;;
20036;SDS011;10179;42.640;23.312;2023-02-16T03:51:19;32.13;;;15.27;;
20036;SDS011;10179;42.640;23.312;2023-02-16T03:53:45;33.03;;;16.02;;
20036;SDS011;10179;42.640;23.312;2023-02-16T03:56:10;33.10;;;15.23;;
20036;SDS011;10179;42.640;23.312;2023-02-16T03:58:36;31.90;;;14.75;;
20036;SDS011;10179;42.640;23.312;2023-02-16T04:01:01;30.83;;;15.48;;
20036;SDS011;10179;42.640;23.312;2023-02-16T04:03:26;38.30;;;16.67;;
20036;SDS011;10179;42.640;23.312;2023-02-16T04:05:52;36.25;;;15.23;;
20036;SDS011;10179;42.640;23.312;2023-02-16T04:08:17;35.58;;;16.13;;
20036;SDS011;10179;42.640;23.312;2023-02-16T04:10:43;36.30;;;16.88;;
20036;SDS011;10179;42.640;23.312;2023-02-16T04:13:08;39.47;;;16.38;;
20036;SDS011;10179;42.640;23.312;2023-02-16T04:15:34;38.83;;;16.20;;
20036;SDS011;10179;42.640;23.312;2023-02-16T04:18:00;32.53;;;15.75;;
20036;SDS011;10179;42.640;23.312;2023-02-16T04:20:27;36.63;;;16.85;;
20036;SDS011;10179;42.640;23.312;2023-02-16T04:22:54;34.33;;;17.05;;
20036;SDS011;10179;42.640;23.312;2023-02-16T04:25:19;46.17;;;19.40;;
20036;SDS011;10179;42.640;23.312;2023-02-16T04:27:45;41.65;;;18.23;;
20036;SDS011;10179;42.640;23.312;2023-02-16T04:30:13;55.75;;;21.50;;
20036;SDS011;10179;42.640;23.312;2023-02-16T04:32:44;38.25;;;17.05;;
20036;SDS011;10179;42.640;23.312;2023-02-16T04:35:09;38.92;;;16.67;;
20036;SDS011;10179;42.640;23.312;2023-02-16T04:37:36;50.95;;;21.90;;
20036;SDS011;10179;42.640;23.312;2023-02-16T04:40:02;60.55;;;23.67;;
20036;SDS011;10179;42.640;23.312;2023-02-16T04:42:28;51.50;;;20.90;;
20036;SDS011;10179;42.640;23.312;2023-02-16T04:44:53;62.85;;;27.33;;
20036;SDS011;10179;42.640;23.312;2023-02-16T04:47:18;63.58;;;24.70;;
20036;SDS011;10179;42.640;23.312;2023-02-16T04:49:44;59.90;;;23.90;;
20036;SDS011;10179;42.640;23.312;2023-02-16T04:52:12;61.03;;;24.95;;
20036;SDS011;10179;42.640;23.312;2023-02-16T04:54:38;57.60;;;22.60;;
20036;SDS011;10179;42.640;23.312;2023-02-16T04:57:03;52.33;;;21.70;;
20036;SDS011;10179;42.640;23.312;2023-02-16T04:59:29;41.42;;;19.38;;
20036;SDS011;10179;42.640;23.312;2023-02-16T05:01:54;43.85;;;19.77;;
20036;SDS011;10179;42.640;23.312;2023-02-16T05:04:21;43.33;;;19.83;;
20036;SDS011;10179;42.640;23.312;2023-02-16T05:06:47;41.13;;;19.10;;
20036;SDS011;10179;42.640;23.312;2023-02-16T05:09:13;42.28;;;20.05;;
20036;SDS011;10179;42.640;23.312;2023-02-16T05:11:38;59.63;;;25.83;;
20036;SDS011;10179;42.640;23.312;2023-02-16T05:14:23;62.17;;;27.42;;
20036;SDS011;10179;42.640;23.312;2023-02-16T05:17:06;84.40;;;31.35;;
20036;SDS011;10179;42.640;23.312;2023-02-16T05:19:36;104.05;;;42.28;;
20036;SDS011;10179;42.640;23.312;2023-02-16T05:22:02;231.18;;;79.70;;
20036;SDS011;10179;42.640;23.312;2023-02-16T05:24:27;101.57;;;41.97;;
20036;SDS011;10179;42.640;23.312;2023-02-16T05:26:53;69.00;;;31.27;;
20036;SDS011;10179;42.640;23.312;2023-02-16T05:29:18;75.30;;;32.00;;
20036;SDS011;10179;42.640;23.312;2023-02-16T05:31:44;69.10;;;29.48;;
20036;SDS011;10179;42.640;23.312;2023-02-16T05:34:10;73.03;;;29.70;;
20036;SDS011;10179;42.640;23.312;2023-02-16T05:36:35;76.95;;;32.75;;
20036;SDS011;10179;42.640;23.312;2023-02-16T05:39:01;87.32;;;35.75;;
20036;SDS011;10179;42.640;23.312;2023-02-16T05:41:26;117.78;;;47.33;;
20036;SDS011;10179;42.640;23.312;2023-02-16T05:43:52;123.25;;;48.38;;
20036;SDS011;10179;42.640;23.312;2023-02-16T05:46:23;116.75;;;46.70;;
20036;SDS011;10179;42.640;23.312;2023-02-16T05:48:49;105.65;;;43.03;;
20036;SDS011;10179;42.640;23.312;2023-02-16T05:51:15;84.18;;;35.92;;
20036;SDS011;10179;42.640;23.312;2023-02-16T05:53:41;75.05;;;32.45;;
20036;SDS011;10179;42.640;23.312;2023-02-16T05:56:07;83.40;;;35.85;;
20036;SDS011;10179;42.640;23.312;2023-02-16T05:58:33;70.32;;;31.63;;
20036;SDS011;10179;42.640;23.312;2023-02-16T06:00:59;66.07;;;30.05;;
20036;SDS011;10179;42.640;23.312;2023-02-16T06:03:24;65.57;;;32.35;;
20036;SDS011;10179;42.640;23.312;2023-02-16T06:05:54;60.15;;;28.00;;
20036;SDS011;10179;42.640;23.312;2023-02-16T06:08:20;56.95;;;26.33;;
20036;SDS011;10179;42.640;23.312;2023-02-16T06:10:50;50.88;;;25.02;;
20036;SDS011;10179;42.640;23.312;2023-02-16T06:13:16;54.05;;;25.42;;
20036;SDS011;10179;42.640;23.312;2023-02-16T06:15:42;68.72;;;28.00;;
20036;SDS011;10179;42.640;23.312;2023-02-16T06:18:07;56.03;;;26.27;;
20036;SDS011;10179;42.640;23.312;2023-02-16T06:20:35;57.95;;;25.73;;
20036;SDS011;10179;42.640;23.312;2023-02-16T06:23:01;49.38;;;23.55;;
20036;SDS011;10179;42.640;23.312;2023-02-16T06:25:26;50.13;;;24.60;;
20036;SDS011;10179;42.640;23.312;2023-02-16T06:27:52;43.53;;;21.23;;
20036;SDS011;10179;42.640;23.312;2023-02-16T06:30:17;45.70;;;22.38;;
20036;SDS011;10179;42.640;23.312;2023-02-16T06:32:43;49.88;;;23.55;;
20036;SDS011;10179;42.640;23.312;2023-02-16T06:35:08;49.63;;;24.33;;
20036;SDS011;10179;42.640;23.312;2023-02-16T06:37:34;57.72;;;28.00;;
20036;SDS011;10179;42.640;23.312;2023-02-16T06:39:59;58.35;;;27.50;;
20036;SDS011;10179;42.640;23.312;2023-02-16T06:42:25;55.38;;;25.55;;
20036;SDS011;10179;42.640;23.312;2023-02-16T06:44:50;52.72;;;26.40;;
20036;SDS011;10179;42.640;23.312;2023-02-16T06:47:15;64.60;;;29.05;;
20036;SDS011;10179;42.640;23.312;2023-02-16T06:49:41;56.88;;;28.45;;
20036;SDS011;10179;42.640;23.312;2023-02-16T06:52:06;52.35;;;27.30;;
20036;SDS011;10179;42.640;23.312;2023-02-16T06:54:32;58.42;;;28.73;;
20036;SDS011;10179;42.640;23.312;2023-02-16T06:56:57;59.05;;;29.52;;
20036;SDS011;10179;42.640;23.312;2023-02-16T06:59:22;60.97;;;29.35;;
20036;SDS011;10179;42.640;23.312;2023-02-16T07:01:48;55.13;;;29.23;;
20036;SDS011;10179;42.640;23.312;2023-02-16T07:04:13;60.33;;;30.20;;
20036;SDS011;10179;42.640;23.312;2023-02-16T07:06:39;53.53;;;28.55;;
20036;SDS011;10179;42.640;23.312;2023-02-16T07:09:06;59.92;;;28.80;;
20036;SDS011;10179;42.640;23.312;2023-02-16T07:11:32;58.80;;;28.08;;
20036;SDS011;10179;42.640;23.312;2023-02-16T07:13:57;57.15;;;28.73;;
20036;SDS011;10179;42.640;23.312;2023-02-16T07:16:23;64.38;;;30.58;;
20036;SDS011;10179;42.640;23.312;2023-02-16T07:18:48;64.30;;;30.55;;
20036;SDS011;10179;42.640;23.312;2023-02-16T07:21:14;66.18;;;28.70;;
20036;SDS011;10179;42.640;23.312;2023-02-16T07:23:39;58.70;;;30.08;;
20036;SDS011;10179;42.640;23.312;2023-02-16T07:26:05;58.20;;;28.63;;
20036;SDS011;10179;42.640;23.312;2023-02-16T07:28:30;62.20;;;28.83;;
20036;SDS011;10179;42.640;23.312;2023-02-16T07:30:56;61.65;;;29.25;;
20036;SDS011;10179;42.640;23.312;2023-02-16T07:33:21;55.53;;;28.52;;
20036;SDS011;10179;42.640;23.312;2023-02-16T07:35:47;57.13;;;27.63;;
20036;SDS011;10179;42.640;23.312;2023-02-16T07:38:14;54.65;;;28.38;;
20036;SDS011;10179;42.640;23.312;2023-02-16T07:40:39;50.67;;;25.40;;
20036;SDS011;10179;42.640;23.312;2023-02-16T07:43:06;45.95;;;23.23;;
20036;SDS011;10179;42.640;23.312;2023-02-16T07:45:31;51.05;;;25.02;;
20036;SDS011;10179;42.640;23.312;2023-02-16T07:47:58;48.65;;;24.38;;
20036;SDS011;10179;42.640;23.312;2023-02-16T07:50:23;51.10;;;25.45;;
20036;SDS011;10179;42.640;23.312;2023-02-16T07:52:49;57.70;;;27.85;;
20036;SDS011;10179;42.640;23.312;2023-02-16T07:55:14;58.35;;;29.65;;
20036;SDS011;10179;42.640;23.312;2023-02-16T07:57:40;60.28;;;29.83;;
20036;SDS011;10179;42.640;23.312;2023-02-16T08:00:06;61.22;;;31.10;;
20036;SDS011;10179;42.640;23.312;2023-02-16T08:02:32;64.57;;;32.88;;
20036;SDS011;10179;42.640;23.312;2023-02-16T08:04:57;75.22;;;35.33;;
20036;SDS011;10179;42.640;23.312;2023-02-16T08:07:23;73.45;;;36.80;;
20036;SDS011;10179;42.640;23.312;2023-02-16T08:09:48;78.45;;;36.28;;
20036;SDS011;10179;42.640;23.312;2023-02-16T08:12:14;74.57;;;37.25;;
20036;SDS011;10179;42.640;23.312;2023-02-16T08:14:41;77.20;;;36.00;;
20036;SDS011;10179;42.640;23.312;2023-02-16T08:17:07;79.00;;;37.00;;
20036;SDS011;10179;42.640;23.312;2023-02-16T08:19:33;80.75;;;36.38;;
20036;SDS011;10179;42.640;23.312;2023-02-16T08:21:59;70.50;;;35.05;;
20036;SDS011;10179;42.640;23.312;2023-02-16T08:24:26;64.70;;;33.65;;
20036;SDS011;10179;42.640;23.312;2023-02-16T08:26:52;63.25;;;33.20;;
20036;SDS011;10179;42.640;23.312;2023-02-16T08:29:20;63.45;;;29.42;;
20036;SDS011;10179;42.640;23.312;2023-02-16T08:31:46;59.92;;;29.77;;
20036;SDS011;10179;42.640;23.312;2023-02-16T08:34:13;61.42;;;30.38;;
20036;SDS011;10179;42.640;23.312;2023-02-16T08:36:41;62.28;;;29.90;;
20036;SDS011;10179;42.640;23.312;2023-02-16T08:39:14;61.30;;;30.60;;
20036;SDS011;10179;42.640;23.312;2023-02-16T08:41:43;58.50;;;30.85;;
20036;SDS011;10179;42.640;23.312;2023-02-16T08:44:10;49.15;;;23.60;;
20036;SDS011;10179;42.640;23.312;2023-02-16T08:46:36;56.50;;;25.00;;
20036;SDS011;10179;42.640;23.312;2023-02-16T08:49:04;45.65;;;23.35;;
20036;SDS011;10179;42.640;23.312;2023-02-16T08:51:31;46.70;;;23.65;;
20036;SDS011;10179;42.640;23.312;2023-02-16T08:54:00;51.83;;;23.80;;
20036;SDS011;10179;42.640;23.312;2023-02-16T08:56:27;53.70;;;25.90;;
20036;SDS011;10179;42.640;23.312;2023-02-16T08:58:54;54.72;;;27.83;;
20036;SDS011;10179;42.640;23.312;2023-02-16T09:01:19;57.50;;;25.30;;
20036;SDS011;10179;42.640;23.312;2023-02-16T09:03:46;49.38;;;25.63;;
20036;SDS011;10179;42.640;23.312;2023-02-16T09:06:13;57.95;;;26.55;;
20036;SDS011;10179;42.640;23.312;2023-02-16T09:08:40;59.90;;;28.77;;
20036;SDS011;10179;42.640;23.312;2023-02-16T09:11:12;51.78;;;26.80;;
20036;SDS011;10179;42.640;23.312;2023-02-16T09:13:39;57.88;;;27.35;;
20036;SDS011;10179;42.640;23.312;2023-02-16T09:16:08;55.58;;;28.85;;
20036;SDS011;10179;42.640;23.312;2023-02-16T09:18:37;54.55;;;27.65;;
20036;SDS011;10179;42.640;23.312;2023-02-16T09:21:07;60.45;;;30.02;;
20036;SDS011;10179;42.640;23.312;2023-02-16T09:23:36;62.80;;;28.13;;
20036;SDS011;10179;42.640;23.312;2023-02-16T09:26:02;58.70;;;27.67;;
20036;SDS011;10179;42.640;23.312;2023-02-16T09:28:31;53.42;;;25.75;;
20036;SDS011;10179;42.640;23.312;2023-02-16T09:31:07;52.63;;;24.88;;
20036;SDS011;10179;42.640;23.312;2023-02-16T09:33:36;48.80;;;25.27;;
20036;SDS011;10179;42.640;23.312;2023-02-16T09:36:05;49.13;;;23.80;;
20036;SDS011;10179;42.640;23.312;2023-02-16T09:38:31;52.45;;;24.65;;
20036;SDS011;10179;42.640;23.312;2023-02-16T09:40:58;51.78;;;23.77;;
20036;SDS011;10179;42.640;23.312;2023-02-16T09:43:42;51.92;;;25.40;;
20036;SDS011;10179;42.640;23.312;2023-02-16T09:46:12;49.33;;;23.50;;
20036;SDS011;10179;42.640;23.312;2023-02-16T09:48:43;51.90;;;24.30;;
20036;SDS011;10179;42.640;23.312;2023-02-16T09:51:45;53.08;;;25.10;;
20036;SDS011;10179;42.640;23.312;2023-02-16T09:56:57;50.03;;;23.80;;
20036;SDS011;10179;42.640;23.312;2023-02-16T10:10:26;54.83;;;26.38;;
20036;SDS011;10179;42.640;23.312;2023-02-16T10:13:07;55.22;;;25.75;;
20036;SDS011;10179;42.640;23.312;2023-02-16T10:15:45;48.90;;;23.50;;
20036;SDS011;10179;42.640;23.312;2023-02-16T10:18:19;53.65;;;25.20;;
20036;SDS011;10179;42.640;23.312;2023-02-16T10:20:52;49.80;;;24.95;;
20036;SDS011;10179;42.640;23.312;2023-02-16T10:23:31;54.00;;;24.23;;
20036;SDS011;10179;42.640;23.312;2023-02-16T10:28:48;55.70;;;24.80;;
20036;SDS011;10179;42.640;23.312;2023-02-16T10:31:19;56.75;;;25.95;;
20036;SDS011;10179;42.640;23.312;2023-02-16T10:34:02;50.28;;;25.10;;
20036;SDS011;10179;42.640;23.312;2023-02-16T10:45:33;53.45;;;24.58;;
20036;SDS011;10179;42.640;23.312;2023-02-16T10:47:39;47.55;;;24.65;;
20036;SDS011;10179;42.640;23.312;2023-02-16T10:50:09;64.43;;;24.67;;
20036;SDS011;10179;42.640;23.312;2023-02-16T10:52:45;53.97;;;24.50;;
20036;SDS011;10179;42.640;23.312;2023-02-16T10:55:11;51.50;;;24.00;;
20036;SDS011;10179;42.640;23.312;2023-02-16T10:57:37;58.03;;;24.15;;
20036;SDS011;10179;42.640;23.312;2023-02-16T11:00:14;49.55;;;26.25;;
20036;SDS011;10179;42.640;23.312;2023-02-16T11:02:45;56.50;;;27.45;;
20036;SDS011;10179;42.640;23.312;2023-02-16T11:07:53;59.05;;;25.05;;
20036;SDS011;10179;42.640;23.312;2023-02-16T11:13:17;49.45;;;23.77;;
20036;SDS011;10179;42.640;23.312;2023-02-16T11:16:07;50.85;;;23.90;;
20036;SDS011;10179;42.640;23.312;2023-02-16T11:18:39;50.90;;;24.80;;
20036;SDS011;10179;42.640;23.312;2023-02-16T11:21:07;56.17;;;24.27;;
20036;SDS011;10179;42.640;23.312;2023-02-16T11:23:35;49.33;;;23.98;;
20036;SDS011;10179;42.640;23.312;2023-02-16T11:28:47;54.53;;;24.60;;
20036;SDS011;10179;42.640;23.312;2023-02-16T11:31:18;50.47;;;24.08;;
20036;SDS011;10179;42.640;23.312;2023-02-16T11:39:00;49.30;;;23.08;;
20036;SDS011;10179;42.640;23.312;2023-02-16T11:41:34;58.00;;;24.98;;
20036;SDS011;10179;42.640;23.312;2023-02-16T11:44:00;56.13;;;26.25;;
20036;SDS011;10179;42.640;23.312;2023-02-16T11:46:27;54.05;;;23.83;;
20036;SDS011;10179;42.640;23.312;2023-02-16T11:51:52;49.53;;;23.63;;
20036;SDS011;10179;42.640;23.312;2023-02-16T11:54:17;56.20;;;23.98;;
20036;SDS011;10179;42.640;23.312;2023-02-16T11:56:48;52.53;;;23.77;;
20036;SDS011;10179;42.640;23.312;2023-02-16T11:59:26;55.20;;;23.10;;
20036;SDS011;10179;42.640;23.312;2023-02-16T12:07:31;50.85;;;23.23;;
20036;SDS011;10179;42.640;23.312;2023-02-16T12:10:08;60.08;;;23.25;;
20036;SDS011;10179;42.640;23.312;2023-02-16T12:45:43;50.15;;;22.17;;
20036;SDS011;10179;42.640;23.312;2023-02-16T12:50:35;48.75;;;21.23;;
20036;SDS011;10179;42.640;23.312;2023-02-16T12:55:57;45.97;;;21.03;;
20036;SDS011;10179;42.640;23.312;2023-02-16T13:00:55;43.75;;;21.27;;
20036;SDS011;10179;42.640;23.312;2023-02-16T13:03:38;55.13;;;22.48;;
20036;SDS011;10179;42.640;23.312;2023-02-16T13:12:04;51.50;;;20.42;;
20036;SDS011;10179;42.640;23.312;2023-02-16T13:14:30;45.88;;;19.95;;
20036;SDS011;10179;42.640;23.312;2023-02-16T13:17:00;50.50;;;20.20;;
20036;SDS011;10179;42.640;23.312;2023-02-16T13:19:32;43.42;;;20.27;;
20036;SDS011;10179;42.640;23.312;2023-02-16T13:33:01;54.58;;;21.63;;
20036;SDS011;10179;42.640;23.312;2023-02-16T13:41:41;50.38;;;20.42;;
20036;SDS011;10179;42.640;23.312;2023-02-16T13:44:22;45.08;;;20.85;;
20036;SDS011;10179;42.640;23.312;2023-02-16T13:47:04;47.20;;;21.15;;
20036;SDS011;10179;42.640;23.312;2023-02-16T13:49:32;48.20;;;20.38;;
20036;SDS011;10179;42.640;23.312;2023-02-16T13:52:02;56.35;;;21.67;;
20036;SDS011;10179;42.640;23.312;2023-02-16T13:54:30;49.72;;;22.15;;
20036;SDS011;10179;42.640;23.312;2023-02-16T13:57:02;46.80;;;21.00;;
20036;SDS011;10179;42.640;23.312;2023-02-16T14:01:54;55.85;;;21.60;;
20036;SDS011;10179;42.640;23.312;2023-02-16T14:06:46;50.35;;;21.35;;
20036;SDS011;10179;42.640;23.312;2023-02-16T14:30:21;41.72;;;19.23;;
20036;SDS011;10179;42.640;23.312;2023-02-16T14:40:51;44.88;;;19.33;;
20036;SDS011;10179;42.640;23.312;2023-02-16T14:43:32;44.88;;;18.88;;
20036;SDS011;10179;42.640;23.312;2023-02-16T14:57:06;75.15;;;27.65;;
20036;SDS011;10179;42.640;23.312;2023-02-16T15:02:27;73.70;;;29.92;;
20036;SDS011;10179;42.640;23.312;2023-02-16T15:07:43;93.82;;;35.08;;
20036;SDS011;10179;42.640;23.312;2023-02-16T15:10:12;95.20;;;36.53;;
20036;SDS011;10179;42.640;23.312;2023-02-16T15:12:38;91.47;;;37.25;;
20036;SDS011;10179;42.640;23.312;2023-02-16T15:15:05;83.40;;;34.72;;
20036;SDS011;10179;42.640;23.312;2023-02-16T15:22:35;81.45;;;33.92;;
20036;SDS011;10179;42.640;23.312;2023-02-16T15:27:52;76.28;;;30.77;;
20036;SDS011;10179;42.640;23.312;2023-02-16T15:30:20;87.80;;;32.78;;
20036;SDS011;10179;42.640;23.312;2023-02-16T15:32:48;88.70;;;34.08;;
20036;SDS011;10179;42.640;23.312;2023-02-16T15:35:36;95.85;;;36.00;;
20036;SDS011;10179;42.640;23.312;2023-02-16T15:38:19;84.05;;;34.67;;
20036;SDS011;10179;42.640;23.312;2023-02-16T15:40:45;80.88;;;33.47;;
20036;SDS011;10179;42.640;23.312;2023-02-16T15:45:52;82.47;;;34.35;;
20036;SDS011;10179;42.640;23.312;2023-02-16T15:50:59;83.38;;;33.63;;
20036;SDS011;10179;42.640;23.312;2023-02-16T15:53:50;78.40;;;33.90;;
20036;SDS011;10179;42.640;23.312;2023-02-16T15:56:23;87.70;;;32.13;;
20036;SDS011;10179;42.640;23.312;2023-02-16T15:59:19;79.88;;;33.58;;
20036;SDS011;10179;42.640;23.312;2023-02-16T16:01:46;85.68;;;34.20;;
20036;SDS011;10179;42.640;23.312;2023-02-16T16:04:19;76.53;;;34.47;;
20036;SDS011;10179;42.640;23.312;2023-02-16T16:06:47;80.00;;;33.05;;
20036;SDS011;10179;42.640;23.312;2023-02-16T16:09:25;101.93;;;39.90;;
20036;SDS011;10179;42.640;23.312;2023-02-16T16:11:57;109.93;;;41.60;;
20036;SDS011;10179;42.640;23.312;2023-02-16T16:14:25;102.38;;;39.65;;
20036;SDS011;10179;42.640;23.312;2023-02-16T16:16:51;101.90;;;41.10;;
20036;SDS011;10179;42.640;23.312;2023-02-16T16:19:39;116.70;;;44.22;;
20036;SDS011;10179;42.640;23.312;2023-02-16T16:22:26;106.90;;;43.60;;
20036;SDS011;10179;42.640;23.312;2023-02-16T16:24:58;105.57;;;40.20;;
20036;SDS011;10179;42.640;23.312;2023-02-16T16:27:32;99.22;;;36.22;;
20036;SDS011;10179;42.640;23.312;2023-02-16T16:33:05;142.67;;;48.13;;
20036;SDS011;10179;42.640;23.312;2023-02-16T16:38:03;134.73;;;48.03;;
20036;SDS011;10179;42.640;23.312;2023-02-16T16:40:34;112.88;;;41.03;;
20036;SDS011;10179;42.640;23.312;2023-02-16T16:48:08;99.00;;;36.33;;
20036;SDS011;10179;42.640;23.312;2023-02-16T16:50:35;54.30;;;22.58;;
20036;SDS011;10179;42.640;23.312;2023-02-16T16:53:12;60.10;;;26.65;;
20036;SDS011;10179;42.640;23.312;2023-02-16T16:55:53;47.13;;;19.55;;
20036;SDS011;10179;42.640;23.312;2023-02-16T16:58:19;56.80;;;25.45;;
20036;SDS011;10179;42.640;23.312;2023-02-16T17:00:45;67.78;;;34.20;;
20036;SDS011;10179;42.640;23.312;2023-02-16T17:03:12;64.47;;;29.08;;
20036;SDS011;10179;42.640;23.312;2023-02-16T17:05:40;60.58;;;26.50;;
20036;SDS011;10179;42.640;23.312;2023-02-16T17:08:06;51.47;;;22.08;;
20036;SDS011;10179;42.640;23.312;2023-02-16T17:10:33;56.35;;;23.17;;
20036;SDS011;10179;42.640;23.312;2023-02-16T17:13:01;41.47;;;18.52;;
20036;SDS011;10179;42.640;23.312;2023-02-16T17:17:57;58.63;;;23.63;;
20036;SDS011;10179;42.640;23.312;2023-02-16T17:20:24;62.90;;;23.05;;
20036;SDS011;10179;42.640;23.312;2023-02-16T17:22:49;61.67;;;22.73;;
20036;SDS011;10179;42.640;23.312;2023-02-16T17:25:17;81.43;;;29.30;;
20036;SDS011;10179;42.640;23.312;2023-02-16T17:27:43;58.95;;;23.20;;
20036;SDS011;10179;42.640;23.312;2023-02-16T17:30:08;91.13;;;36.22;;
20036;SDS011;10179;42.640;23.312;2023-02-16T17:32:35;52.20;;;23.50;;
20036;SDS011;10179;42.640;23.312;2023-02-16T17:35:01;96.88;;;37.88;;
20036;SDS011;10179;42.640;23.312;2023-02-16T17:37:26;105.20;;;37.60;;
20036;SDS011;10179;42.640;23.312;2023-02-16T17:39:52;97.93;;;34.90;;
20036;SDS011;10179;42.640;23.312;2023-02-16T17:42:17;73.43;;;29.42;;
20036;SDS011;10179;42.640;23.312;2023-02-16T17:44:42;72.50;;;27.83;;
20036;SDS011;10179;42.640;23.312;2023-02-16T17:47:17;95.55;;;32.00;;
20036;SDS011;10179;42.640;23.312;2023-02-16T17:49:42;107.95;;;33.25;;
20036;SDS011;10179;42.640;23.312;2023-02-16T17:52:09;101.07;;;36.08;;
20036;SDS011;10179;42.640;23.312;2023-02-16T17:54:35;119.18;;;38.88;;
20036;SDS011;10179;42.640;23.312;2023-02-16T17:57:01;38.30;;;15.00;;
20036;SDS011;10179;42.640;23.312;2023-02-16T17:59:26;53.85;;;19.50;;
20036;SDS011;10179;42.640;23.312;2023-02-16T18:01:52;73.60;;;31.75;;
20036;SDS011;10179;42.640;23.312;2023-02-16T18:04:17;92.53;;;30.42;;
20036;SDS011;10179;42.640;23.312;2023-02-16T18:06:42;77.57;;;28.88;;